sensor_id;sensor_type;location;lat;lon;timestamp;P1;durP1;ratioP1;P2;durP2;ratioP2
8171;SDS011;4127;47.908;10.850;2024-03-06T00:00:12;4.40;;;4.10;;
8171;SDS011;4127;47.908;10.850;2024-03-06T00:02:40;4.77;;;4.37;;
8171;SDS011;4127;47.908;10.850;2024-03-06T00:05:07;4.70;;;4.30;;
8171;SDS011;4127;47.908;10.850;2024-03-06T00:07:35;4.20;;;3.90;;
8171;SDS011;4127;47.908;10.850;2024-03-06T00:10:02;4.40;;;4.10;;
8171;SDS011;4127;47.908;10.850;2024-03-06T00:12:31;4.37;;;4.07;;
8171;SDS011;4127;47.908;10.850;2024-03-06T00:14:58;4.50;;;4.10;;
8171;SDS011;4127;47.908;10.850;2024-03-06T00:17:25;4.10;;;3.80;;
8171;SDS011;4127;47.908;10.850;2024-03-06T00:19:53;4.20;;;3.90;;
8171;SDS011;4127;47.908;10.850;2024-03-06T00:22:20;4.10;;;3.80;;
8171;SDS011;4127;47.908;10.850;2024-03-06T00:24:49;3.97;;;3.67;;
8171;SDS011;4127;47.908;10.850;2024-03-06T00:27:16;4.03;;;3.73;;
8171;SDS011;4127;47.908;10.850;2024-03-06T00:29:43;4.10;;;3.70;;
8171;SDS011;4127;47.908;10.850;2024-03-06T00:32:10;4.00;;;3.70;;
8171;SDS011;4127;47.908;10.850;2024-03-06T00:34:37;3.80;;;3.50;;
8171;SDS011;4127;47.908;10.850;2024-03-06T00:37:04;3.93;;;3.63;;
8171;SDS011;4127;47.908;10.850;2024-03-06T00:39:31;3.83;;;3.53;;
8171;SDS011;4127;47.908;10.850;2024-03-06T00:41:58;3.83;;;3.53;;
8171;SDS011;4127;47.908;10.850;2024-03-06T00:44:25;3.93;;;3.63;;
8171;SDS011;4127;47.908;10.850;2024-03-06T00:46:52;4.10;;;3.70;;
8171;SDS011;4127;47.908;10.850;2024-03-06T00:49:18;3.67;;;3.37;;
8171;SDS011;4127;47.908;10.850;2024-03-06T00:51:45;3.70;;;3.40;;
8171;SDS011;4127;47.908;10.850;2024-03-06T00:54:15;4.03;;;3.73;;
8171;SDS011;4127;47.908;10.850;2024-03-06T00:56:42;3.90;;;3.60;;
8171;SDS011;4127;47.908;10.850;2024-03-06T00:59:09;4.13;;;3.73;;
8171;SDS011;4127;47.908;10.850;2024-03-06T01:01:37;3.17;;;2.97;;
8171;SDS011;4127;47.908;10.850;2024-03-06T01:04:04;3.20;;;2.97;;
8171;SDS011;4127;47.908;10.850;2024-03-06T01:06:31;3.83;;;3.50;;
8171;SDS011;4127;47.908;10.850;2024-03-06T01:08:58;4.20;;;3.50;;
8171;SDS011;4127;47.908;10.850;2024-03-06T01:11:25;4.00;;;3.60;;
8171;SDS011;4127;47.908;10.850;2024-03-06T01:13:53;3.00;;;2.80;;
8171;SDS011;4127;47.908;10.850;2024-03-06T01:16:20;4.40;;;4.10;;
8171;SDS011;4127;47.908;10.850;2024-03-06T01:18:47;4.27;;;3.80;;
8171;SDS011;4127;47.908;10.850;2024-03-06T01:21:14;3.67;;;3.37;;
8171;SDS011;4127;47.908;10.850;2024-03-06T01:23:41;3.73;;;3.43;;
8171;SDS011;4127;47.908;10.850;2024-03-06T01:26:09;3.93;;;3.63;;
8171;SDS011;4127;47.908;10.850;2024-03-06T01:28:37;3.10;;;2.90;;
8171;SDS011;4127;47.908;10.850;2024-03-06T01:31:03;3.80;;;3.50;;
8171;SDS011;4127;47.908;10.850;2024-03-06T01:33:30;4.43;;;3.87;;
8171;SDS011;4127;47.908;10.850;2024-03-06T01:35:57;3.57;;;3.27;;
8171;SDS011;4127;47.908;10.850;2024-03-06T01:38:24;3.40;;;3.20;;
8171;SDS011;4127;47.908;10.850;2024-03-06T01:40:51;4.30;;;3.90;;
8171;SDS011;4127;47.908;10.850;2024-03-06T01:43:22;3.67;;;3.37;;
8171;SDS011;4127;47.908;10.850;2024-03-06T01:45:50;3.93;;;3.57;;
8171;SDS011;4127;47.908;10.850;2024-03-06T01:48:26;4.30;;;3.90;;
8171;SDS011;4127;47.908;10.850;2024-03-06T01:50:55;3.63;;;3.33;;
8171;SDS011;4127;47.908;10.850;2024-03-06T01:53:24;3.87;;;3.57;;
8171;SDS011;4127;47.908;10.850;2024-03-06T01:55:53;4.57;;;4.17;;
8171;SDS011;4127;47.908;10.850;2024-03-06T01:58:21;4.23;;;3.93;;
8171;SDS011;4127;47.908;10.850;2024-03-06T02:00:49;4.60;;;4.20;;
8171;SDS011;4127;47.908;10.850;2024-03-06T02:03:17;3.63;;;3.30;;
8171;SDS011;4127;47.908;10.850;2024-03-06T02:05:47;4.07;;;3.77;;
8171;SDS011;4127;47.908;10.850;2024-03-06T02:08:15;4.03;;;3.70;;
8171;SDS011;4127;47.908;10.850;2024-03-06T02:10:44;4.33;;;3.93;;
8171;SDS011;4127;47.908;10.850;2024-03-06T02:13:13;4.10;;;3.73;;
8171;SDS011;4127;47.908;10.850;2024-03-06T02:15:40;4.20;;;3.80;;
8171;SDS011;4127;47.908;10.850;2024-03-06T02:18:07;4.13;;;3.73;;
8171;SDS011;4127;47.908;10.850;2024-03-06T02:20:38;4.40;;;4.00;;
8171;SDS011;4127;47.908;10.850;2024-03-06T02:23:08;3.83;;;3.53;;
8171;SDS011;4127;47.908;10.850;2024-03-06T02:25:35;4.47;;;4.17;;
8171;SDS011;4127;47.908;10.850;2024-03-06T02:28:02;4.93;;;4.53;;
8171;SDS011;4127;47.908;10.850;2024-03-06T02:30:30;5.03;;;4.63;;
8171;SDS011;4127;47.908;10.850;2024-03-06T02:33:03;5.07;;;4.67;;
8171;SDS011;4127;47.908;10.850;2024-03-06T02:35:30;4.30;;;4.00;;
8171;SDS011;4127;47.908;10.850;2024-03-06T02:37:57;4.70;;;4.30;;
8171;SDS011;4127;47.908;10.850;2024-03-06T02:40:25;4.83;;;4.43;;
8171;SDS011;4127;47.908;10.850;2024-03-06T02:42:52;4.47;;;4.17;;
8171;SDS011;4127;47.908;10.850;2024-03-06T02:45:19;4.43;;;4.13;;
8171;SDS011;4127;47.908;10.850;2024-03-06T02:47:46;4.50;;;4.10;;
8171;SDS011;4127;47.908;10.850;2024-03-06T02:50:13;4.57;;;4.17;;
8171;SDS011;4127;47.908;10.850;2024-03-06T02:52:41;4.03;;;3.73;;
8171;SDS011;4127;47.908;10.850;2024-03-06T02:55:08;3.87;;;3.57;;
8171;SDS011;4127;47.908;10.850;2024-03-06T02:57:35;4.10;;;3.80;;
8171;SDS011;4127;47.908;10.850;2024-03-06T03:00:03;3.87;;;3.53;;
8171;SDS011;4127;47.908;10.850;2024-03-06T03:02:31;4.70;;;4.20;;
8171;SDS011;4127;47.908;10.850;2024-03-06T03:04:58;3.80;;;3.50;;
8171;SDS011;4127;47.908;10.850;2024-03-06T03:07:25;3.90;;;3.60;;
8171;SDS011;4127;47.908;10.850;2024-03-06T03:09:52;3.47;;;3.17;;
8171;SDS011;4127;47.908;10.850;2024-03-06T03:12:18;3.47;;;3.17;;
8171;SDS011;4127;47.908;10.850;2024-03-06T03:14:45;3.50;;;3.23;;
8171;SDS011;4127;47.908;10.850;2024-03-06T03:17:12;3.10;;;2.90;;
8171;SDS011;4127;47.908;10.850;2024-03-06T03:19:41;3.13;;;2.93;;
8171;SDS011;4127;47.908;10.850;2024-03-06T03:22:08;3.43;;;3.13;;
8171;SDS011;4127;47.908;10.850;2024-03-06T03:24:36;3.63;;;3.33;;
8171;SDS011;4127;47.908;10.850;2024-03-06T03:27:03;3.23;;;3.00;;
8171;SDS011;4127;47.908;10.850;2024-03-06T03:29:30;3.03;;;2.83;;
8171;SDS011;4127;47.908;10.850;2024-03-06T03:31:57;4.10;;;3.70;;
8171;SDS011;4127;47.908;10.850;2024-03-06T03:34:24;3.37;;;3.17;;
8171;SDS011;4127;47.908;10.850;2024-03-06T03:36:50;3.80;;;3.10;;
8171;SDS011;4127;47.908;10.850;2024-03-06T03:39:17;3.47;;;3.27;;
8171;SDS011;4127;47.908;10.850;2024-03-06T03:41:47;3.10;;;2.90;;
8171;SDS011;4127;47.908;10.850;2024-03-06T03:44:15;3.07;;;2.87;;
8171;SDS011;4127;47.908;10.850;2024-03-06T03:46:43;3.33;;;3.03;;
8171;SDS011;4127;47.908;10.850;2024-03-06T03:49:11;3.20;;;3.00;;
8171;SDS011;4127;47.908;10.850;2024-03-06T03:51:38;3.63;;;3.33;;
8171;SDS011;4127;47.908;10.850;2024-03-06T03:54:06;3.20;;;3.00;;
8171;SDS011;4127;47.908;10.850;2024-03-06T03:56:32;3.57;;;3.27;;
8171;SDS011;4127;47.908;10.850;2024-03-06T03:59:00;3.37;;;3.13;;
8171;SDS011;4127;47.908;10.850;2024-03-06T04:01:27;3.10;;;2.90;;
8171;SDS011;4127;47.908;10.850;2024-03-06T04:03:54;2.97;;;2.73;;
8171;SDS011;4127;47.908;10.850;2024-03-06T04:06:21;3.30;;;3.00;;
8171;SDS011;4127;47.908;10.850;2024-03-06T04:08:48;3.13;;;2.93;;
8171;SDS011;4127;47.908;10.850;2024-03-06T04:11:15;2.90;;;2.70;;
8171;SDS011;4127;47.908;10.850;2024-03-06T04:13:42;3.20;;;2.93;;
8171;SDS011;4127;47.908;10.850;2024-03-06T04:16:09;3.43;;;3.20;;
8171;SDS011;4127;47.908;10.850;2024-03-06T04:18:36;2.87;;;2.67;;
8171;SDS011;4127;47.908;10.850;2024-03-06T04:21:06;2.90;;;2.70;;
8171;SDS011;4127;47.908;10.850;2024-03-06T04:23:35;2.80;;;2.60;;
8171;SDS011;4127;47.908;10.850;2024-03-06T04:26:02;2.57;;;2.37;;
8171;SDS011;4127;47.908;10.850;2024-03-06T04:28:29;2.20;;;2.10;;
8171;SDS011;4127;47.908;10.850;2024-03-06T04:30:56;2.10;;;2.00;;
8171;SDS011;4127;47.908;10.850;2024-03-06T04:33:23;2.10;;;2.00;;
8171;SDS011;4127;47.908;10.850;2024-03-06T04:35:50;2.00;;;1.90;;
8171;SDS011;4127;47.908;10.850;2024-03-06T04:38:18;2.13;;;2.03;;
8171;SDS011;4127;47.908;10.850;2024-03-06T04:40:45;2.00;;;1.90;;
8171;SDS011;4127;47.908;10.850;2024-03-06T04:43:12;1.57;;;1.47;;
8171;SDS011;4127;47.908;10.850;2024-03-06T04:45:39;1.80;;;1.70;;
8171;SDS011;4127;47.908;10.850;2024-03-06T04:48:06;1.90;;;1.80;;
8171;SDS011;4127;47.908;10.850;2024-03-06T04:50:33;1.90;;;1.80;;
8171;SDS011;4127;47.908;10.850;2024-03-06T04:53:00;1.60;;;1.50;;
8171;SDS011;4127;47.908;10.850;2024-03-06T04:55:27;1.40;;;1.30;;
8171;SDS011;4127;47.908;10.850;2024-03-06T04:57:54;1.80;;;1.70;;
8171;SDS011;4127;47.908;10.850;2024-03-06T05:00:21;1.57;;;1.47;;
8171;SDS011;4127;47.908;10.850;2024-03-06T05:02:49;1.33;;;1.33;;
8171;SDS011;4127;47.908;10.850;2024-03-06T05:05:33;1.57;;;1.47;;
8171;SDS011;4127;47.908;10.850;2024-03-06T05:08:17;3.13;;;2.83;;
8171;SDS011;4127;47.908;10.850;2024-03-06T05:11:01;2.77;;;2.57;;
8171;SDS011;4127;47.908;10.850;2024-03-06T05:13:46;2.70;;;2.50;;
8171;SDS011;4127;47.908;10.850;2024-03-06T05:16:30;2.60;;;2.40;;
8171;SDS011;4127;47.908;10.850;2024-03-06T05:19:14;3.03;;;2.83;;
8171;SDS011;4127;47.908;10.850;2024-03-06T05:21:59;2.27;;;2.17;;
8171;SDS011;4127;47.908;10.850;2024-03-06T05:24:43;3.20;;;3.00;;
8171;SDS011;4127;47.908;10.850;2024-03-06T05:27:28;2.77;;;2.57;;
8171;SDS011;4127;47.908;10.850;2024-03-06T05:30:12;2.40;;;2.20;;
8171;SDS011;4127;47.908;10.850;2024-03-06T05:32:58;1.70;;;1.60;;
8171;SDS011;4127;47.908;10.850;2024-03-06T05:35:42;1.70;;;1.60;;
8171;SDS011;4127;47.908;10.850;2024-03-06T05:38:26;1.60;;;1.50;;
8171;SDS011;4127;47.908;10.850;2024-03-06T05:41:10;1.80;;;1.70;;
8171;SDS011;4127;47.908;10.850;2024-03-06T05:43:55;1.87;;;1.77;;
8171;SDS011;4127;47.908;10.850;2024-03-06T05:46:40;1.70;;;1.60;;
8171;SDS011;4127;47.908;10.850;2024-03-06T05:49:24;2.10;;;2.00;;
8171;SDS011;4127;47.908;10.850;2024-03-06T05:52:09;2.60;;;2.40;;
8171;SDS011;4127;47.908;10.850;2024-03-06T05:54:53;2.20;;;2.10;;
8171;SDS011;4127;47.908;10.850;2024-03-06T05:57:37;1.80;;;1.70;;
8171;SDS011;4127;47.908;10.850;2024-03-06T06:00:22;1.87;;;1.77;;
8171;SDS011;4127;47.908;10.850;2024-03-06T06:02:49;2.03;;;1.93;;
8171;SDS011;4127;47.908;10.850;2024-03-06T06:05:16;1.90;;;1.80;;
8171;SDS011;4127;47.908;10.850;2024-03-06T06:07:49;2.13;;;2.03;;
8171;SDS011;4127;47.908;10.850;2024-03-06T06:10:17;2.13;;;2.03;;
8171;SDS011;4127;47.908;10.850;2024-03-06T06:12:47;2.20;;;2.10;;
8171;SDS011;4127;47.908;10.850;2024-03-06T06:15:15;2.53;;;2.33;;
8171;SDS011;4127;47.908;10.850;2024-03-06T06:17:42;2.63;;;2.43;;
8171;SDS011;4127;47.908;10.850;2024-03-06T06:20:11;2.50;;;2.30;;
8171;SDS011;4127;47.908;10.850;2024-03-06T06:22:42;2.00;;;1.90;;
8171;SDS011;4127;47.908;10.850;2024-03-06T06:25:10;2.20;;;2.10;;
8171;SDS011;4127;47.908;10.850;2024-03-06T06:27:37;2.20;;;2.10;;
8171;SDS011;4127;47.908;10.850;2024-03-06T06:30:05;2.10;;;2.00;;
8171;SDS011;4127;47.908;10.850;2024-03-06T06:32:42;2.30;;;2.20;;
8171;SDS011;4127;47.908;10.850;2024-03-06T06:35:10;2.33;;;2.13;;
8171;SDS011;4127;47.908;10.850;2024-03-06T06:37:39;3.10;;;2.90;;
8171;SDS011;4127;47.908;10.850;2024-03-06T06:40:06;14.13;;;10.53;;
8171;SDS011;4127;47.908;10.850;2024-03-06T06:42:34;5.00;;;4.23;;
8171;SDS011;4127;47.908;10.850;2024-03-06T06:45:02;3.67;;;3.37;;
8171;SDS011;4127;47.908;10.850;2024-03-06T06:47:29;3.67;;;3.37;;
8171;SDS011;4127;47.908;10.850;2024-03-06T06:49:57;2.30;;;2.20;;
8171;SDS011;4127;47.908;10.850;2024-03-06T06:52:23;2.43;;;2.23;;
8171;SDS011;4127;47.908;10.850;2024-03-06T06:54:53;2.10;;;2.00;;
8171;SDS011;4127;47.908;10.850;2024-03-06T06:57:20;2.20;;;2.10;;
8171;SDS011;4127;47.908;10.850;2024-03-06T06:59:47;1.93;;;1.83;;
8171;SDS011;4127;47.908;10.850;2024-03-06T07:02:14;1.90;;;1.80;;
8171;SDS011;4127;47.908;10.850;2024-03-06T07:04:41;2.03;;;1.93;;
8171;SDS011;4127;47.908;10.850;2024-03-06T07:07:08;2.00;;;1.90;;
8171;SDS011;4127;47.908;10.850;2024-03-06T07:09:36;1.87;;;1.77;;
8171;SDS011;4127;47.908;10.850;2024-03-06T07:12:03;2.00;;;1.90;;
8171;SDS011;4127;47.908;10.850;2024-03-06T07:14:31;2.20;;;2.10;;
8171;SDS011;4127;47.908;10.850;2024-03-06T07:16:58;1.80;;;1.70;;
8171;SDS011;4127;47.908;10.850;2024-03-06T07:19:25;1.93;;;1.83;;
8171;SDS011;4127;47.908;10.850;2024-03-06T07:21:52;2.10;;;2.00;;
8171;SDS011;4127;47.908;10.850;2024-03-06T07:24:19;2.00;;;1.90;;
8171;SDS011;4127;47.908;10.850;2024-03-06T07:26:46;2.00;;;1.90;;
8171;SDS011;4127;47.908;10.850;2024-03-06T07:29:13;2.90;;;2.70;;
8171;SDS011;4127;47.908;10.850;2024-03-06T07:31:43;2.80;;;2.60;;
8171;SDS011;4127;47.908;10.850;2024-03-06T07:34:11;3.03;;;2.83;;
8171;SDS011;4127;47.908;10.850;2024-03-06T07:36:39;2.20;;;2.10;;
8171;SDS011;4127;47.908;10.850;2024-03-06T07:39:06;2.27;;;2.17;;
8171;SDS011;4127;47.908;10.850;2024-03-06T07:41:36;2.93;;;2.73;;
8171;SDS011;4127;47.908;10.850;2024-03-06T07:44:03;2.50;;;2.33;;
8171;SDS011;4127;47.908;10.850;2024-03-06T07:46:30;2.80;;;2.60;;
8171;SDS011;4127;47.908;10.850;2024-03-06T07:48:57;3.13;;;2.93;;
8171;SDS011;4127;47.908;10.850;2024-03-06T07:51:24;3.20;;;2.90;;
8171;SDS011;4127;47.908;10.850;2024-03-06T07:53:51;3.33;;;3.10;;
8171;SDS011;4127;47.908;10.850;2024-03-06T07:56:18;3.27;;;3.07;;
8171;SDS011;4127;47.908;10.850;2024-03-06T07:58:45;3.13;;;2.90;;
8171;SDS011;4127;47.908;10.850;2024-03-06T08:01:12;3.20;;;3.00;;
8171;SDS011;4127;47.908;10.850;2024-03-06T08:03:39;3.03;;;2.83;;
8171;SDS011;4127;47.908;10.850;2024-03-06T08:06:07;2.90;;;2.70;;
8171;SDS011;4127;47.908;10.850;2024-03-06T08:08:35;2.70;;;2.50;;
8171;SDS011;4127;47.908;10.850;2024-03-06T08:11:03;2.60;;;2.40;;
8171;SDS011;4127;47.908;10.850;2024-03-06T08:13:30;2.40;;;2.30;;
8171;SDS011;4127;47.908;10.850;2024-03-06T08:15:57;2.83;;;2.63;;
8171;SDS011;4127;47.908;10.850;2024-03-06T08:18:24;3.00;;;2.80;;
8171;SDS011;4127;47.908;10.850;2024-03-06T08:20:51;2.90;;;2.70;;
8171;SDS011;4127;47.908;10.850;2024-03-06T08:23:19;2.70;;;2.50;;
8171;SDS011;4127;47.908;10.850;2024-03-06T08:25:46;2.40;;;2.30;;
8171;SDS011;4127;47.908;10.850;2024-03-06T08:28:13;2.30;;;2.20;;
8171;SDS011;4127;47.908;10.850;2024-03-06T08:30:40;2.37;;;2.27;;
8171;SDS011;4127;47.908;10.850;2024-03-06T08:33:06;2.00;;;1.90;;
8171;SDS011;4127;47.908;10.850;2024-03-06T08:35:34;2.20;;;2.10;;
8171;SDS011;4127;47.908;10.850;2024-03-06T08:38:01;2.53;;;2.43;;
8171;SDS011;4127;47.908;10.850;2024-03-06T08:40:28;2.30;;;2.20;;
8171;SDS011;4127;47.908;10.850;2024-03-06T08:42:55;2.13;;;2.03;;
8171;SDS011;4127;47.908;10.850;2024-03-06T08:45:22;2.73;;;2.53;;
8171;SDS011;4127;47.908;10.850;2024-03-06T08:47:52;2.60;;;2.40;;
8171;SDS011;4127;47.908;10.850;2024-03-06T08:50:22;2.23;;;2.13;;
8171;SDS011;4127;47.908;10.850;2024-03-06T08:52:49;2.60;;;2.40;;
8171;SDS011;4127;47.908;10.850;2024-03-06T08:55:16;2.33;;;2.23;;
8171;SDS011;4127;47.908;10.850;2024-03-06T08:57:42;2.00;;;1.90;;
8171;SDS011;4127;47.908;10.850;2024-03-06T09:00:10;2.07;;;1.97;;
8171;SDS011;4127;47.908;10.850;2024-03-06T09:02:38;2.27;;;2.17;;
8171;SDS011;4127;47.908;10.850;2024-03-06T09:05:08;2.00;;;1.90;;
8171;SDS011;4127;47.908;10.850;2024-03-06T09:07:40;1.80;;;1.70;;
8171;SDS011;4127;47.908;10.850;2024-03-06T09:10:07;2.30;;;2.20;;
8171;SDS011;4127;47.908;10.850;2024-03-06T09:12:36;2.43;;;2.30;;
8171;SDS011;4127;47.908;10.850;2024-03-06T09:15:03;2.40;;;2.20;;
8171;SDS011;4127;47.908;10.850;2024-03-06T09:17:31;2.10;;;2.00;;
8171;SDS011;4127;47.908;10.850;2024-03-06T09:19:58;2.70;;;2.50;;
8171;SDS011;4127;47.908;10.850;2024-03-06T09:22:38;2.67;;;2.47;;
8171;SDS011;4127;47.908;10.850;2024-03-06T09:25:06;3.40;;;3.10;;
8171;SDS011;4127;47.908;10.850;2024-03-06T09:27:33;3.50;;;3.20;;
8171;SDS011;4127;47.908;10.850;2024-03-06T09:30:01;3.40;;;3.17;;
8171;SDS011;4127;47.908;10.850;2024-03-06T09:32:29;2.90;;;2.70;;
8171;SDS011;4127;47.908;10.850;2024-03-06T09:34:58;2.40;;;2.20;;
8171;SDS011;4127;47.908;10.850;2024-03-06T09:37:25;2.70;;;2.50;;
8171;SDS011;4127;47.908;10.850;2024-03-06T09:39:54;2.33;;;2.23;;
8171;SDS011;4127;47.908;10.850;2024-03-06T09:42:21;3.57;;;3.17;;
8171;SDS011;4127;47.908;10.850;2024-03-06T09:44:49;2.83;;;2.63;;
8171;SDS011;4127;47.908;10.850;2024-03-06T09:47:18;2.60;;;2.40;;
8171;SDS011;4127;47.908;10.850;2024-03-06T09:49:52;2.60;;;2.40;;
8171;SDS011;4127;47.908;10.850;2024-03-06T09:52:23;2.33;;;2.23;;
8171;SDS011;4127;47.908;10.850;2024-03-06T09:54:56;2.37;;;2.17;;
8171;SDS011;4127;47.908;10.850;2024-03-06T09:57:24;1.80;;;1.70;;
8171;SDS011;4127;47.908;10.850;2024-03-06T09:59:51;2.10;;;2.00;;
8171;SDS011;4127;47.908;10.850;2024-03-06T10:02:24;2.20;;;2.10;;
8171;SDS011;4127;47.908;10.850;2024-03-06T10:04:58;4.80;;;4.30;;
8171;SDS011;4127;47.908;10.850;2024-03-06T10:07:25;3.20;;;2.90;;
8171;SDS011;4127;47.908;10.850;2024-03-06T10:09:53;2.87;;;2.67;;
8171;SDS011;4127;47.908;10.850;2024-03-06T10:12:21;2.97;;;2.77;;
8171;SDS011;4127;47.908;10.850;2024-03-06T10:14:49;2.30;;;2.10;;
8171;SDS011;4127;47.908;10.850;2024-03-06T10:17:19;2.10;;;2.00;;
8171;SDS011;4127;47.908;10.850;2024-03-06T10:19:50;3.27;;;2.97;;
8171;SDS011;4127;47.908;10.850;2024-03-06T10:22:19;2.80;;;2.60;;
8171;SDS011;4127;47.908;10.850;2024-03-06T10:24:47;2.77;;;2.57;;
8171;SDS011;4127;47.908;10.850;2024-03-06T10:27:14;2.30;;;2.20;;
8171;SDS011;4127;47.908;10.850;2024-03-06T10:29:45;2.10;;;2.00;;
8171;SDS011;4127;47.908;10.850;2024-03-06T10:32:16;2.03;;;1.93;;
8171;SDS011;4127;47.908;10.850;2024-03-06T10:34:45;2.00;;;1.90;;
8171;SDS011;4127;47.908;10.850;2024-03-06T10:37:12;2.20;;;2.10;;
8171;SDS011;4127;47.908;10.850;2024-03-06T10:39:41;1.80;;;1.70;;
8171;SDS011;4127;47.908;10.850;2024-03-06T10:42:12;1.70;;;1.60;;
8171;SDS011;4127;47.908;10.850;2024-03-06T10:44:42;1.80;;;1.70;;
8171;SDS011;4127;47.908;10.850;2024-03-06T10:47:21;1.57;;;1.47;;
8171;SDS011;4127;47.908;10.850;2024-03-06T10:49:53;1.80;;;1.70;;
8171;SDS011;4127;47.908;10.850;2024-03-06T10:52:21;1.70;;;1.60;;
8171;SDS011;4127;47.908;10.850;2024-03-06T10:54:49;1.63;;;1.53;;
8171;SDS011;4127;47.908;10.850;2024-03-06T10:57:16;1.90;;;1.80;;
8171;SDS011;4127;47.908;10.850;2024-03-06T10:59:44;2.60;;;2.40;;
8171;SDS011;4127;47.908;10.850;2024-03-06T11:02:12;1.63;;;1.53;;
8171;SDS011;4127;47.908;10.850;2024-03-06T11:04:39;1.80;;;1.70;;
8171;SDS011;4127;47.908;10.850;2024-03-06T11:07:07;1.80;;;1.70;;
8171;SDS011;4127;47.908;10.850;2024-03-06T11:09:40;1.77;;;1.67;;
8171;SDS011;4127;47.908;10.850;2024-03-06T11:12:07;2.13;;;1.93;;
8171;SDS011;4127;47.908;10.850;2024-03-06T11:14:38;1.73;;;1.63;;
8171;SDS011;4127;47.908;10.850;2024-03-06T11:17:08;1.93;;;1.83;;
8171;SDS011;4127;47.908;10.850;2024-03-06T11:28:31;1.87;;;1.77;;
8171;SDS011;4127;47.908;10.850;2024-03-06T11:31:03;1.90;;;1.80;;
8171;SDS011;4127;47.908;10.850;2024-03-06T11:33:38;2.20;;;2.10;;
8171;SDS011;4127;47.908;10.850;2024-03-06T11:41:23;2.03;;;1.93;;
8171;SDS011;4127;47.908;10.850;2024-03-06T11:43:52;2.10;;;2.00;;
8171;SDS011;4127;47.908;10.850;2024-03-06T11:46:20;1.80;;;1.70;;
8171;SDS011;4127;47.908;10.850;2024-03-06T11:49:14;1.60;;;1.50;;
8171;SDS011;4127;47.908;10.850;2024-03-06T11:51:47;2.07;;;1.97;;
8171;SDS011;4127;47.908;10.850;2024-03-06T11:54:15;1.83;;;1.73;;
8171;SDS011;4127;47.908;10.850;2024-03-06T11:56:44;1.63;;;1.60;;
8171;SDS011;4127;47.908;10.850;2024-03-06T11:59:13;1.40;;;1.40;;
8171;SDS011;4127;47.908;10.850;2024-03-06T12:01:41;1.40;;;1.40;;
8171;SDS011;4127;47.908;10.850;2024-03-06T12:04:08;1.63;;;1.30;;
8171;SDS011;4127;47.908;10.850;2024-03-06T12:06:35;1.77;;;1.67;;
8171;SDS011;4127;47.908;10.850;2024-03-06T12:09:03;2.90;;;2.70;;
8171;SDS011;4127;47.908;10.850;2024-03-06T12:11:31;2.10;;;2.00;;
8171;SDS011;4127;47.908;10.850;2024-03-06T12:13:58;2.70;;;2.50;;
8171;SDS011;4127;47.908;10.850;2024-03-06T12:16:25;10.53;;;6.43;;
8171;SDS011;4127;47.908;10.850;2024-03-06T12:18:56;3.00;;;2.70;;
8171;SDS011;4127;47.908;10.850;2024-03-06T12:21:32;4.00;;;3.60;;
8171;SDS011;4127;47.908;10.850;2024-03-06T12:24:09;8.47;;;6.23;;
8171;SDS011;4127;47.908;10.850;2024-03-06T12:26:37;8.43;;;7.10;;
8171;SDS011;4127;47.908;10.850;2024-03-06T12:29:04;6.47;;;5.43;;
8171;SDS011;4127;47.908;10.850;2024-03-06T12:31:36;6.50;;;5.33;;
8171;SDS011;4127;47.908;10.850;2024-03-06T12:34:04;8.30;;;6.77;;
8171;SDS011;4127;47.908;10.850;2024-03-06T12:36:32;9.50;;;7.70;;
8171;SDS011;4127;47.908;10.850;2024-03-06T12:39:01;2.70;;;2.50;;
8171;SDS011;4127;47.908;10.850;2024-03-06T12:41:29;2.30;;;2.10;;
8171;SDS011;4127;47.908;10.850;2024-03-06T12:43:56;2.80;;;2.60;;
8171;SDS011;4127;47.908;10.850;2024-03-06T12:46:23;3.63;;;3.33;;
8171;SDS011;4127;47.908;10.850;2024-03-06T12:48:52;2.90;;;2.70;;
8171;SDS011;4127;47.908;10.850;2024-03-06T12:51:19;2.63;;;2.43;;
8171;SDS011;4127;47.908;10.850;2024-03-06T12:53:46;1.97;;;1.83;;
8171;SDS011;4127;47.908;10.850;2024-03-06T12:56:14;2.03;;;1.93;;
8171;SDS011;4127;47.908;10.850;2024-03-06T12:58:41;2.53;;;2.33;;
8171;SDS011;4127;47.908;10.850;2024-03-06T13:01:08;2.60;;;2.40;;
8171;SDS011;4127;47.908;10.850;2024-03-06T13:03:38;2.13;;;2.03;;
8171;SDS011;4127;47.908;10.850;2024-03-06T13:06:05;2.40;;;2.20;;
8171;SDS011;4127;47.908;10.850;2024-03-06T13:08:32;2.10;;;2.00;;
8171;SDS011;4127;47.908;10.850;2024-03-06T13:10:59;2.60;;;2.40;;
8171;SDS011;4127;47.908;10.850;2024-03-06T13:13:26;1.90;;;1.80;;
8171;SDS011;4127;47.908;10.850;2024-03-06T13:15:55;2.90;;;2.30;;
8171;SDS011;4127;47.908;10.850;2024-03-06T13:18:22;7.70;;;5.47;;
8171;SDS011;4127;47.908;10.850;2024-03-06T13:20:49;10.87;;;7.93;;
8171;SDS011;4127;47.908;10.850;2024-03-06T13:23:16;4.33;;;3.30;;
8171;SDS011;4127;47.908;10.850;2024-03-06T13:25:43;3.80;;;3.40;;
8171;SDS011;4127;47.908;10.850;2024-03-06T13:28:12;2.13;;;2.03;;
8171;SDS011;4127;47.908;10.850;2024-03-06T13:30:39;2.00;;;1.90;;
8171;SDS011;4127;47.908;10.850;2024-03-06T13:33:06;1.90;;;1.80;;
8171;SDS011;4127;47.908;10.850;2024-03-06T13:35:34;1.70;;;1.60;;
8171;SDS011;4127;47.908;10.850;2024-03-06T13:38:01;2.23;;;2.03;;
8171;SDS011;4127;47.908;10.850;2024-03-06T13:40:29;2.60;;;2.40;;
8171;SDS011;4127;47.908;10.850;2024-03-06T13:42:56;2.50;;;2.30;;
8171;SDS011;4127;47.908;10.850;2024-03-06T13:45:23;2.70;;;2.50;;
8171;SDS011;4127;47.908;10.850;2024-03-06T13:47:50;3.67;;;3.37;;
8171;SDS011;4127;47.908;10.850;2024-03-06T13:50:17;3.30;;;3.00;;
8171;SDS011;4127;47.908;10.850;2024-03-06T13:52:44;2.20;;;2.10;;
8171;SDS011;4127;47.908;10.850;2024-03-06T13:55:11;2.00;;;1.90;;
8171;SDS011;4127;47.908;10.850;2024-03-06T13:57:39;1.80;;;1.70;;
8171;SDS011;4127;47.908;10.850;2024-03-06T14:00:07;2.00;;;1.90;;
8171;SDS011;4127;47.908;10.850;2024-03-06T14:02:39;3.33;;;3.00;;
8171;SDS011;4127;47.908;10.850;2024-03-06T14:05:06;2.83;;;2.63;;
8171;SDS011;4127;47.908;10.850;2024-03-06T14:07:34;3.43;;;3.13;;
8171;SDS011;4127;47.908;10.850;2024-03-06T14:10:01;3.00;;;2.77;;
8171;SDS011;4127;47.908;10.850;2024-03-06T14:12:31;2.03;;;1.93;;
8171;SDS011;4127;47.908;10.850;2024-03-06T14:14:58;2.03;;;1.70;;
8171;SDS011;4127;47.908;10.850;2024-03-06T14:17:25;1.67;;;1.57;;
8171;SDS011;4127;47.908;10.850;2024-03-06T14:19:52;1.70;;;1.60;;
8171;SDS011;4127;47.908;10.850;2024-03-06T14:22:19;1.80;;;1.70;;
8171;SDS011;4127;47.908;10.850;2024-03-06T14:24:46;2.30;;;2.20;;
8171;SDS011;4127;47.908;10.850;2024-03-06T14:27:13;2.37;;;2.27;;
8171;SDS011;4127;47.908;10.850;2024-03-06T14:29:42;2.67;;;2.47;;
8171;SDS011;4127;47.908;10.850;2024-03-06T14:32:10;2.90;;;2.70;;
8171;SDS011;4127;47.908;10.850;2024-03-06T14:34:37;2.50;;;2.30;;
8171;SDS011;4127;47.908;10.850;2024-03-06T14:37:05;4.53;;;4.13;;
8171;SDS011;4127;47.908;10.850;2024-03-06T14:39:32;4.90;;;4.50;;
8171;SDS011;4127;47.908;10.850;2024-03-06T14:41:59;4.10;;;3.80;;
8171;SDS011;4127;47.908;10.850;2024-03-06T14:44:25;2.83;;;2.63;;
8171;SDS011;4127;47.908;10.850;2024-03-06T14:46:53;2.73;;;2.53;;
8171;SDS011;4127;47.908;10.850;2024-03-06T14:49:19;4.03;;;3.63;;
8171;SDS011;4127;47.908;10.850;2024-03-06T14:51:46;3.40;;;3.10;;
8171;SDS011;4127;47.908;10.850;2024-03-06T14:54:13;4.20;;;3.80;;
8171;SDS011;4127;47.908;10.850;2024-03-06T14:56:40;5.97;;;5.17;;
8171;SDS011;4127;47.908;10.850;2024-03-06T14:59:08;5.10;;;4.50;;
8171;SDS011;4127;47.908;10.850;2024-03-06T15:01:35;6.57;;;5.53;;
8171;SDS011;4127;47.908;10.850;2024-03-06T15:04:04;5.40;;;4.90;;
8171;SDS011;4127;47.908;10.850;2024-03-06T15:06:31;3.00;;;2.80;;
8171;SDS011;4127;47.908;10.850;2024-03-06T15:08:58;4.10;;;3.80;;
8171;SDS011;4127;47.908;10.850;2024-03-06T15:11:25;2.67;;;2.47;;
8171;SDS011;4127;47.908;10.850;2024-03-06T15:13:52;4.57;;;4.17;;
8171;SDS011;4127;47.908;10.850;2024-03-06T15:16:18;2.60;;;2.40;;
8171;SDS011;4127;47.908;10.850;2024-03-06T15:18:45;2.70;;;2.50;;
8171;SDS011;4127;47.908;10.850;2024-03-06T15:21:13;2.63;;;2.43;;
8171;SDS011;4127;47.908;10.850;2024-03-06T15:23:40;3.20;;;3.00;;